Saratoga, Arkansas
Current Conditions -  °F | °C
As of 11:53 PM on Friday 24 Oct 2014 (Local Time) from KTXK Reporting Station
Clear Clear  
Wind Chill: 62°   Ceiling: Unl
Heat Index: 62°   Visibility: 9mi
Dew Point: 58°   Wind: 3mph
Humidity: 86%   Direction: 190°S
Pressure: 30.12"   Gusts: NA
Location:  33.75°N, 93.9°W
Report Text: KTXK 250453Z AUTO 19003KT 9SM CLR 17/14 A3012 RMK AO2 SLP196 T01670144
Loading
Personal Weather Stations






























Interactive Weather Map
Tropical Storm Tracking
New forecast layout! Learn more

10-Day Weather Forecast

Advertisements
Track Severe Weather on mobile